sensor_id;sensor_type;location;lat;lon;timestamp;P1;durP1;ratioP1;P2;durP2;ratioP2
79687;SDS011;69155;49.464;2.108;2023-07-13T00:01:52;5.87;;;2.50;;
79687;SDS011;69155;49.464;2.108;2023-07-13T00:04:19;5.87;;;2.00;;
79687;SDS011;69155;49.464;2.108;2023-07-13T00:06:45;8.02;;;2.42;;
79687;SDS011;69155;49.464;2.108;2023-07-13T00:09:12;6.53;;;1.77;;
79687;SDS011;69155;49.464;2.108;2023-07-13T00:11:38;5.57;;;2.13;;
79687;SDS011;69155;49.464;2.108;2023-07-13T00:14:07;4.57;;;2.15;;
79687;SDS011;69155;49.464;2.108;2023-07-13T00:16:33;6.72;;;2.15;;
79687;SDS011;69155;49.464;2.108;2023-07-13T00:18:59;9.25;;;2.53;;
79687;SDS011;69155;49.464;2.108;2023-07-13T00:21:25;5.95;;;2.13;;
79687;SDS011;69155;49.464;2.108;2023-07-13T00:23:50;4.18;;;2.22;;
79687;SDS011;69155;49.464;2.108;2023-07-13T00:26:15;4.90;;;2.00;;
79687;SDS011;69155;49.464;2.108;2023-07-13T00:28:42;3.63;;;2.00;;
79687;SDS011;69155;49.464;2.108;2023-07-13T00:31:08;6.47;;;1.90;;
79687;SDS011;69155;49.464;2.108;2023-07-13T00:33:33;5.85;;;2.33;;
79687;SDS011;69155;49.464;2.108;2023-07-13T00:36:02;3.33;;;2.05;;
79687;SDS011;69155;49.464;2.108;2023-07-13T00:38:28;6.50;;;2.33;;
79687;SDS011;69155;49.464;2.108;2023-07-13T00:40:53;4.07;;;1.90;;
79687;SDS011;69155;49.464;2.108;2023-07-13T00:43:22;3.90;;;1.73;;
79687;SDS011;69155;49.464;2.108;2023-07-13T00:48:34;6.20;;;2.00;;
79687;SDS011;69155;49.464;2.108;2023-07-13T00:50:59;10.07;;;2.97;;
79687;SDS011;69155;49.464;2.108;2023-07-13T00:53:26;7.68;;;2.30;;
79687;SDS011;69155;49.464;2.108;2023-07-13T00:55:52;8.18;;;2.47;;
79687;SDS011;69155;49.464;2.108;2023-07-13T00:58:18;3.40;;;2.08;;
79687;SDS011;69155;49.464;2.108;2023-07-13T01:00:44;7.45;;;2.25;;
79687;SDS011;69155;49.464;2.108;2023-07-13T01:03:09;6.50;;;2.08;;
79687;SDS011;69155;49.464;2.108;2023-07-13T01:05:37;4.45;;;1.90;;
79687;SDS011;69155;49.464;2.108;2023-07-13T01:08:03;6.65;;;2.70;;
79687;SDS011;69155;49.464;2.108;2023-07-13T01:10:30;9.38;;;2.22;;
79687;SDS011;69155;49.464;2.108;2023-07-13T01:13:02;6.03;;;2.25;;
79687;SDS011;69155;49.464;2.108;2023-07-13T01:15:36;6.70;;;1.90;;
79687;SDS011;69155;49.464;2.108;2023-07-13T01:18:02;5.75;;;2.05;;
79687;SDS011;69155;49.464;2.108;2023-07-13T01:20:28;11.00;;;2.53;;
79687;SDS011;69155;49.464;2.108;2023-07-13T01:22:53;8.20;;;2.10;;
79687;SDS011;69155;49.464;2.108;2023-07-13T01:25:18;9.90;;;2.50;;
79687;SDS011;69155;49.464;2.108;2023-07-13T01:27:44;8.65;;;2.53;;
79687;SDS011;69155;49.464;2.108;2023-07-13T01:30:09;5.17;;;2.07;;
79687;SDS011;69155;49.464;2.108;2023-07-13T01:32:37;7.65;;;2.13;;
79687;SDS011;69155;49.464;2.108;2023-07-13T01:35:09;6.95;;;2.30;;
79687;SDS011;69155;49.464;2.108;2023-07-13T01:37:34;8.40;;;2.40;;
79687;SDS011;69155;49.464;2.108;2023-07-13T01:40:01;6.80;;;2.25;;
79687;SDS011;69155;49.464;2.108;2023-07-13T01:42:27;5.25;;;3.28;;
79687;SDS011;69155;49.464;2.108;2023-07-13T01:44:52;5.15;;;2.30;;
79687;SDS011;69155;49.464;2.108;2023-07-13T01:47:18;15.07;;;3.77;;
79687;SDS011;69155;49.464;2.108;2023-07-13T01:49:43;9.17;;;2.43;;
79687;SDS011;69155;49.464;2.108;2023-07-13T01:52:10;8.05;;;2.35;;
79687;SDS011;69155;49.464;2.108;2023-07-13T01:54:36;11.33;;;2.30;;
79687;SDS011;69155;49.464;2.108;2023-07-13T01:57:01;6.40;;;2.30;;
79687;SDS011;69155;49.464;2.108;2023-07-13T01:59:26;5.07;;;1.97;;
79687;SDS011;69155;49.464;2.108;2023-07-13T02:01:51;6.47;;;2.20;;
79687;SDS011;69155;49.464;2.108;2023-07-13T02:04:16;7.60;;;2.30;;
79687;SDS011;69155;49.464;2.108;2023-07-13T02:06:42;2.80;;;1.90;;
79687;SDS011;69155;49.464;2.108;2023-07-13T02:09:07;5.60;;;1.90;;
79687;SDS011;69155;49.464;2.108;2023-07-13T02:11:35;6.85;;;2.00;;
79687;SDS011;69155;49.464;2.108;2023-07-13T02:14:00;9.50;;;2.10;;
79687;SDS011;69155;49.464;2.108;2023-07-13T02:16:31;10.05;;;2.53;;
79687;SDS011;69155;49.464;2.108;2023-07-13T02:18:56;7.60;;;2.63;;
79687;SDS011;69155;49.464;2.108;2023-07-13T02:21:22;7.45;;;2.05;;
79687;SDS011;69155;49.464;2.108;2023-07-13T02:23:48;6.43;;;2.15;;
79687;SDS011;69155;49.464;2.108;2023-07-13T02:26:14;6.55;;;2.17;;
79687;SDS011;69155;49.464;2.108;2023-07-13T02:28:39;11.10;;;2.30;;
79687;SDS011;69155;49.464;2.108;2023-07-13T02:31:08;8.83;;;2.40;;
79687;SDS011;69155;49.464;2.108;2023-07-13T02:33:34;7.40;;;2.50;;
79687;SDS011;69155;49.464;2.108;2023-07-13T02:35:59;6.43;;;2.17;;
79687;SDS011;69155;49.464;2.108;2023-07-13T02:38:25;5.77;;;2.93;;
79687;SDS011;69155;49.464;2.108;2023-07-13T02:40:50;6.05;;;2.33;;
79687;SDS011;69155;49.464;2.108;2023-07-13T02:43:16;4.28;;;2.00;;
79687;SDS011;69155;49.464;2.108;2023-07-13T02:45:45;7.30;;;2.10;;
79687;SDS011;69155;49.464;2.108;2023-07-13T02:48:10;5.22;;;2.22;;
79687;SDS011;69155;49.464;2.108;2023-07-13T02:50:38;4.75;;;2.10;;
79687;SDS011;69155;49.464;2.108;2023-07-13T02:53:05;8.25;;;2.05;;
79687;SDS011;69155;49.464;2.108;2023-07-13T02:55:31;7.40;;;2.30;;
79687;SDS011;69155;49.464;2.108;2023-07-13T02:57:56;8.87;;;2.60;;
79687;SDS011;69155;49.464;2.108;2023-07-13T03:00:24;8.32;;;3.78;;
79687;SDS011;69155;49.464;2.108;2023-07-13T03:02:49;4.37;;;1.87;;
79687;SDS011;69155;49.464;2.108;2023-07-13T03:05:16;3.83;;;1.83;;
79687;SDS011;69155;49.464;2.108;2023-07-13T03:07:41;5.72;;;2.10;;
79687;SDS011;69155;49.464;2.108;2023-07-13T03:10:07;6.95;;;2.05;;
79687;SDS011;69155;49.464;2.108;2023-07-13T03:12:33;6.43;;;2.75;;
79687;SDS011;69155;49.464;2.108;2023-07-13T03:14:58;6.17;;;2.03;;
79687;SDS011;69155;49.464;2.108;2023-07-13T03:17:23;5.60;;;2.30;;
79687;SDS011;69155;49.464;2.108;2023-07-13T03:19:49;11.37;;;2.23;;
79687;SDS011;69155;49.464;2.108;2023-07-13T03:22:16;6.97;;;2.90;;
79687;SDS011;69155;49.464;2.108;2023-07-13T03:24:41;5.15;;;2.00;;
79687;SDS011;69155;49.464;2.108;2023-07-13T03:27:06;6.70;;;2.43;;
79687;SDS011;69155;49.464;2.108;2023-07-13T03:29:32;3.30;;;1.63;;
79687;SDS011;69155;49.464;2.108;2023-07-13T03:31:57;10.00;;;2.75;;
79687;SDS011;69155;49.464;2.108;2023-07-13T03:34:23;3.05;;;2.63;;
79687;SDS011;69155;49.464;2.108;2023-07-13T03:36:48;4.80;;;2.17;;
79687;SDS011;69155;49.464;2.108;2023-07-13T03:39:14;8.18;;;2.85;;
79687;SDS011;69155;49.464;2.108;2023-07-13T03:41:39;7.60;;;2.30;;
79687;SDS011;69155;49.464;2.108;2023-07-13T03:44:04;11.17;;;2.87;;
79687;SDS011;69155;49.464;2.108;2023-07-13T03:46:29;6.75;;;2.28;;
79687;SDS011;69155;49.464;2.108;2023-07-13T03:48:55;8.47;;;2.30;;
79687;SDS011;69155;49.464;2.108;2023-07-13T03:51:20;7.47;;;2.63;;
79687;SDS011;69155;49.464;2.108;2023-07-13T03:53:46;4.47;;;1.97;;
79687;SDS011;69155;49.464;2.108;2023-07-13T03:56:12;4.28;;;2.22;;
79687;SDS011;69155;49.464;2.108;2023-07-13T03:58:39;5.57;;;2.33;;
79687;SDS011;69155;49.464;2.108;2023-07-13T04:01:05;11.55;;;2.75;;
79687;SDS011;69155;49.464;2.108;2023-07-13T04:03:31;6.78;;;2.72;;
79687;SDS011;69155;49.464;2.108;2023-07-13T04:05:58;5.18;;;2.85;;
79687;SDS011;69155;49.464;2.108;2023-07-13T04:08:24;8.45;;;2.95;;
79687;SDS011;69155;49.464;2.108;2023-07-13T04:10:50;6.60;;;3.03;;
79687;SDS011;69155;49.464;2.108;2023-07-13T04:13:15;11.90;;;3.20;;
79687;SDS011;69155;49.464;2.108;2023-07-13T04:15:41;10.30;;;3.30;;
79687;SDS011;69155;49.464;2.108;2023-07-13T04:18:06;5.97;;;2.83;;
79687;SDS011;69155;49.464;2.108;2023-07-13T04:20:31;8.83;;;3.00;;
79687;SDS011;69155;49.464;2.108;2023-07-13T04:22:57;7.72;;;2.97;;
79687;SDS011;69155;49.464;2.108;2023-07-13T04:25:23;8.73;;;3.30;;
79687;SDS011;69155;49.464;2.108;2023-07-13T04:27:49;9.50;;;3.20;;
79687;SDS011;69155;49.464;2.108;2023-07-13T04:30:14;8.85;;;3.17;;
79687;SDS011;69155;49.464;2.108;2023-07-13T04:32:42;8.40;;;3.37;;
79687;SDS011;69155;49.464;2.108;2023-07-13T04:35:08;11.63;;;3.10;;
79687;SDS011;69155;49.464;2.108;2023-07-13T04:37:33;10.07;;;3.83;;
79687;SDS011;69155;49.464;2.108;2023-07-13T04:40:00;10.00;;;2.97;;
79687;SDS011;69155;49.464;2.108;2023-07-13T04:42:25;7.30;;;3.15;;
79687;SDS011;69155;49.464;2.108;2023-07-13T04:44:51;9.60;;;2.63;;
79687;SDS011;69155;49.464;2.108;2023-07-13T04:47:16;56.03;;;5.70;;
79687;SDS011;69155;49.464;2.108;2023-07-13T04:49:42;13.43;;;4.10;;
79687;SDS011;69155;49.464;2.108;2023-07-13T04:52:07;12.05;;;3.45;;
79687;SDS011;69155;49.464;2.108;2023-07-13T04:54:35;10.97;;;3.80;;
79687;SDS011;69155;49.464;2.108;2023-07-13T04:57:02;9.77;;;3.35;;
79687;SDS011;69155;49.464;2.108;2023-07-13T04:59:28;17.85;;;3.88;;
79687;SDS011;69155;49.464;2.108;2023-07-13T05:01:53;7.17;;;3.23;;
79687;SDS011;69155;49.464;2.108;2023-07-13T05:04:18;8.53;;;3.77;;
79687;SDS011;69155;49.464;2.108;2023-07-13T05:06:43;7.40;;;3.40;;
79687;SDS011;69155;49.464;2.108;2023-07-13T05:09:21;8.38;;;3.22;;
79687;SDS011;69155;49.464;2.108;2023-07-13T05:11:46;13.02;;;3.50;;
79687;SDS011;69155;49.464;2.108;2023-07-13T05:14:12;13.50;;;3.60;;
79687;SDS011;69155;49.464;2.108;2023-07-13T05:16:37;8.33;;;3.70;;
79687;SDS011;69155;49.464;2.108;2023-07-13T05:19:02;14.87;;;3.70;;
79687;SDS011;69155;49.464;2.108;2023-07-13T05:21:28;5.77;;;2.90;;
79687;SDS011;69155;49.464;2.108;2023-07-13T05:23:53;5.65;;;2.60;;
79687;SDS011;69155;49.464;2.108;2023-07-13T05:26:18;14.30;;;2.83;;
79687;SDS011;69155;49.464;2.108;2023-07-13T05:28:45;6.72;;;2.67;;
79687;SDS011;69155;49.464;2.108;2023-07-13T05:31:10;5.50;;;2.60;;
79687;SDS011;69155;49.464;2.108;2023-07-13T05:33:36;7.40;;;3.05;;
79687;SDS011;69155;49.464;2.108;2023-07-13T05:36:01;8.03;;;3.00;;
79687;SDS011;69155;49.464;2.108;2023-07-13T05:38:27;10.07;;;2.90;;
79687;SDS011;69155;49.464;2.108;2023-07-13T05:40:53;14.90;;;3.47;;
79687;SDS011;69155;49.464;2.108;2023-07-13T05:43:18;7.90;;;3.35;;
79687;SDS011;69155;49.464;2.108;2023-07-13T05:45:43;6.77;;;2.90;;
79687;SDS011;69155;49.464;2.108;2023-07-13T05:48:09;12.50;;;2.63;;
79687;SDS011;69155;49.464;2.108;2023-07-13T05:50:34;16.73;;;3.10;;
79687;SDS011;69155;49.464;2.108;2023-07-13T05:52:59;9.30;;;4.32;;
79687;SDS011;69155;49.464;2.108;2023-07-13T05:55:25;5.93;;;2.83;;
79687;SDS011;69155;49.464;2.108;2023-07-13T05:57:52;10.07;;;3.20;;
79687;SDS011;69155;49.464;2.108;2023-07-13T06:00:17;9.43;;;3.08;;
79687;SDS011;69155;49.464;2.108;2023-07-13T06:02:43;7.37;;;2.77;;
79687;SDS011;69155;49.464;2.108;2023-07-13T06:05:08;10.97;;;2.87;;
79687;SDS011;69155;49.464;2.108;2023-07-13T06:07:33;13.30;;;3.63;;
79687;SDS011;69155;49.464;2.108;2023-07-13T06:09:58;12.60;;;3.60;;
79687;SDS011;69155;49.464;2.108;2023-07-13T06:12:24;12.27;;;3.42;;
79687;SDS011;69155;49.464;2.108;2023-07-13T06:14:49;5.82;;;2.85;;
79687;SDS011;69155;49.464;2.108;2023-07-13T06:17:14;8.03;;;3.63;;
79687;SDS011;69155;49.464;2.108;2023-07-13T06:19:40;7.97;;;3.20;;
79687;SDS011;69155;49.464;2.108;2023-07-13T06:22:05;11.20;;;3.07;;
79687;SDS011;69155;49.464;2.108;2023-07-13T06:24:30;8.50;;;2.72;;
79687;SDS011;69155;49.464;2.108;2023-07-13T06:27:05;10.23;;;3.13;;
79687;SDS011;69155;49.464;2.108;2023-07-13T06:29:30;9.13;;;2.72;;
79687;SDS011;69155;49.464;2.108;2023-07-13T06:31:56;4.80;;;2.30;;
79687;SDS011;69155;49.464;2.108;2023-07-13T06:34:21;10.17;;;3.50;;
79687;SDS011;69155;49.464;2.108;2023-07-13T06:36:47;11.13;;;2.73;;
79687;SDS011;69155;49.464;2.108;2023-07-13T06:39:12;6.18;;;2.40;;
79687;SDS011;69155;49.464;2.108;2023-07-13T06:41:37;9.87;;;2.20;;
79687;SDS011;69155;49.464;2.108;2023-07-13T06:44:03;7.78;;;2.88;;
79687;SDS011;69155;49.464;2.108;2023-07-13T06:46:29;7.77;;;2.87;;
79687;SDS011;69155;49.464;2.108;2023-07-13T06:48:54;6.82;;;2.33;;
79687;SDS011;69155;49.464;2.108;2023-07-13T06:51:19;7.13;;;2.47;;
79687;SDS011;69155;49.464;2.108;2023-07-13T06:53:47;12.27;;;3.28;;
79687;SDS011;69155;49.464;2.108;2023-07-13T06:56:13;6.60;;;2.17;;
79687;SDS011;69155;49.464;2.108;2023-07-13T06:58:38;6.27;;;2.87;;
79687;SDS011;69155;49.464;2.108;2023-07-13T07:01:06;7.28;;;2.53;;
79687;SDS011;69155;49.464;2.108;2023-07-13T07:03:31;6.73;;;2.50;;
79687;SDS011;69155;49.464;2.108;2023-07-13T07:06:15;6.50;;;2.55;;
79687;SDS011;69155;49.464;2.108;2023-07-13T07:08:40;7.97;;;3.08;;
79687;SDS011;69155;49.464;2.108;2023-07-13T07:11:08;9.83;;;2.80;;
79687;SDS011;69155;49.464;2.108;2023-07-13T07:13:33;4.20;;;2.35;;
79687;SDS011;69155;49.464;2.108;2023-07-13T07:15:59;7.33;;;2.70;;
79687;SDS011;69155;49.464;2.108;2023-07-13T07:18:25;8.30;;;2.53;;
79687;SDS011;69155;49.464;2.108;2023-07-13T07:20:50;11.60;;;2.93;;
79687;SDS011;69155;49.464;2.108;2023-07-13T07:23:16;8.80;;;2.93;;
79687;SDS011;69155;49.464;2.108;2023-07-13T07:25:43;8.10;;;2.43;;
79687;SDS011;69155;49.464;2.108;2023-07-13T07:28:08;9.43;;;3.05;;
79687;SDS011;69155;49.464;2.108;2023-07-13T07:30:33;11.97;;;2.90;;
79687;SDS011;69155;49.464;2.108;2023-07-13T07:32:58;11.07;;;2.27;;
79687;SDS011;69155;49.464;2.108;2023-07-13T07:35:23;10.40;;;2.80;;
79687;SDS011;69155;49.464;2.108;2023-07-13T07:37:49;7.10;;;2.30;;
79687;SDS011;69155;49.464;2.108;2023-07-13T07:40:14;8.50;;;2.33;;
79687;SDS011;69155;49.464;2.108;2023-07-13T07:42:39;8.67;;;2.17;;
79687;SDS011;69155;49.464;2.108;2023-07-13T07:45:05;11.00;;;2.60;;
79687;SDS011;69155;49.464;2.108;2023-07-13T07:47:30;9.47;;;3.00;;
79687;SDS011;69155;49.464;2.108;2023-07-13T07:49:55;8.37;;;3.20;;
79687;SDS011;69155;49.464;2.108;2023-07-13T07:52:20;7.37;;;2.40;;
79687;SDS011;69155;49.464;2.108;2023-07-13T07:54:46;6.63;;;2.30;;
79687;SDS011;69155;49.464;2.108;2023-07-13T07:57:11;10.37;;;2.23;;
79687;SDS011;69155;49.464;2.108;2023-07-13T07:59:36;8.97;;;2.27;;
79687;SDS011;69155;49.464;2.108;2023-07-13T08:02:02;9.45;;;2.50;;
79687;SDS011;69155;49.464;2.108;2023-07-13T08:04:27;7.85;;;2.30;;
79687;SDS011;69155;49.464;2.108;2023-07-13T08:06:52;4.33;;;2.37;;
79687;SDS011;69155;49.464;2.108;2023-07-13T08:09:18;7.90;;;2.00;;
79687;SDS011;69155;49.464;2.108;2023-07-13T08:11:43;6.00;;;2.90;;
79687;SDS011;69155;49.464;2.108;2023-07-13T08:14:08;8.87;;;2.63;;
79687;SDS011;69155;49.464;2.108;2023-07-13T08:16:34;8.45;;;2.38;;
79687;SDS011;69155;49.464;2.108;2023-07-13T08:19:02;6.93;;;2.70;;
79687;SDS011;69155;49.464;2.108;2023-07-13T08:21:27;7.70;;;2.55;;
79687;SDS011;69155;49.464;2.108;2023-07-13T08:23:53;9.90;;;2.42;;
79687;SDS011;69155;49.464;2.108;2023-07-13T08:26:18;11.03;;;2.63;;
79687;SDS011;69155;49.464;2.108;2023-07-13T08:28:43;9.23;;;2.73;;
79687;SDS011;69155;49.464;2.108;2023-07-13T08:31:09;8.10;;;3.00;;
79687;SDS011;69155;49.464;2.108;2023-07-13T08:33:35;7.43;;;2.42;;
79687;SDS011;69155;49.464;2.108;2023-07-13T08:36:06;6.82;;;2.15;;
79687;SDS011;69155;49.464;2.108;2023-07-13T08:38:32;9.93;;;2.28;;
79687;SDS011;69155;49.464;2.108;2023-07-13T08:40:57;11.10;;;2.50;;
79687;SDS011;69155;49.464;2.108;2023-07-13T08:43:25;8.33;;;2.10;;
79687;SDS011;69155;49.464;2.108;2023-07-13T08:46:02;7.55;;;2.20;;
79687;SDS011;69155;49.464;2.108;2023-07-13T08:48:35;7.53;;;2.20;;
79687;SDS011;69155;49.464;2.108;2023-07-13T08:51:10;8.52;;;2.78;;
79687;SDS011;69155;49.464;2.108;2023-07-13T08:53:38;10.30;;;3.42;;
79687;SDS011;69155;49.464;2.108;2023-07-13T08:56:07;15.85;;;2.78;;
79687;SDS011;69155;49.464;2.108;2023-07-13T08:58:34;7.40;;;2.47;;
79687;SDS011;69155;49.464;2.108;2023-07-13T09:01:03;6.80;;;2.78;;
79687;SDS011;69155;49.464;2.108;2023-07-13T09:03:40;9.98;;;2.80;;
79687;SDS011;69155;49.464;2.108;2023-07-13T09:06:07;7.55;;;2.63;;
79687;SDS011;69155;49.464;2.108;2023-07-13T09:11:21;8.63;;;2.45;;
79687;SDS011;69155;49.464;2.108;2023-07-13T09:16:14;4.67;;;2.10;;
79687;SDS011;69155;49.464;2.108;2023-07-13T09:18:46;9.40;;;2.17;;
79687;SDS011;69155;49.464;2.108;2023-07-13T09:21:17;12.38;;;2.50;;
79687;SDS011;69155;49.464;2.108;2023-07-13T09:23:43;9.90;;;2.20;;
79687;SDS011;69155;49.464;2.108;2023-07-13T09:26:22;7.83;;;2.63;;
79687;SDS011;69155;49.464;2.108;2023-07-13T09:29:33;10.55;;;2.42;;
79687;SDS011;69155;49.464;2.108;2023-07-13T09:31:33;7.55;;;1.83;;
79687;SDS011;69155;49.464;2.108;2023-07-13T09:33:59;7.30;;;2.35;;
79687;SDS011;69155;49.464;2.108;2023-07-13T09:36:28;5.13;;;2.50;;
79687;SDS011;69155;49.464;2.108;2023-07-13T09:41:40;4.70;;;2.17;;
79687;SDS011;69155;49.464;2.108;2023-07-13T09:46:37;4.90;;;2.13;;
79687;SDS011;69155;49.464;2.108;2023-07-13T09:49:02;6.22;;;2.28;;
79687;SDS011;69155;49.464;2.108;2023-07-13T09:51:28;5.77;;;2.00;;
79687;SDS011;69155;49.464;2.108;2023-07-13T09:53:55;10.20;;;2.30;;
79687;SDS011;69155;49.464;2.108;2023-07-13T09:56:23;5.00;;;1.90;;
79687;SDS011;69155;49.464;2.108;2023-07-13T09:58:48;6.25;;;2.10;;
79687;SDS011;69155;49.464;2.108;2023-07-13T10:01:14;3.85;;;1.73;;
79687;SDS011;69155;49.464;2.108;2023-07-13T10:03:40;4.82;;;1.85;;
79687;SDS011;69155;49.464;2.108;2023-07-13T10:06:17;4.95;;;2.20;;
79687;SDS011;69155;49.464;2.108;2023-07-13T10:08:44;5.90;;;2.00;;
79687;SDS011;69155;49.464;2.108;2023-07-13T10:11:11;5.13;;;2.10;;
79687;SDS011;69155;49.464;2.108;2023-07-13T10:13:37;5.07;;;1.83;;
79687;SDS011;69155;49.464;2.108;2023-07-13T10:16:05;4.68;;;2.10;;
79687;SDS011;69155;49.464;2.108;2023-07-13T10:18:34;5.63;;;2.28;;
79687;SDS011;69155;49.464;2.108;2023-07-13T10:21:20;6.30;;;2.60;;
79687;SDS011;69155;49.464;2.108;2023-07-13T10:23:53;15.02;;;1.90;;
79687;SDS011;69155;49.464;2.108;2023-07-13T10:26:25;7.65;;;2.22;;
79687;SDS011;69155;49.464;2.108;2023-07-13T10:28:52;6.32;;;2.05;;
79687;SDS011;69155;49.464;2.108;2023-07-13T10:31:18;5.25;;;2.80;;
79687;SDS011;69155;49.464;2.108;2023-07-13T10:33:44;4.25;;;1.70;;
79687;SDS011;69155;49.464;2.108;2023-07-13T10:36:17;8.52;;;2.55;;
79687;SDS011;69155;49.464;2.108;2023-07-13T10:38:45;3.88;;;1.70;;
79687;SDS011;69155;49.464;2.108;2023-07-13T10:41:18;7.00;;;2.85;;
79687;SDS011;69155;49.464;2.108;2023-07-13T10:43:45;5.95;;;2.75;;
79687;SDS011;69155;49.464;2.108;2023-07-13T10:46:12;5.97;;;1.73;;
79687;SDS011;69155;49.464;2.108;2023-07-13T10:48:39;3.90;;;1.95;;
79687;SDS011;69155;49.464;2.108;2023-07-13T10:51:05;6.13;;;1.80;;
79687;SDS011;69155;49.464;2.108;2023-07-13T10:53:32;5.97;;;1.85;;
79687;SDS011;69155;49.464;2.108;2023-07-13T11:01:12;7.18;;;2.05;;
79687;SDS011;69155;49.464;2.108;2023-07-13T11:06:07;5.70;;;1.70;;
79687;SDS011;69155;49.464;2.108;2023-07-13T11:08:35;5.03;;;1.70;;
79687;SDS011;69155;49.464;2.108;2023-07-13T11:11:31;5.68;;;1.65;;
79687;SDS011;69155;49.464;2.108;2023-07-13T11:13:56;5.82;;;1.90;;
79687;SDS011;69155;49.464;2.108;2023-07-13T11:18:49;3.57;;;1.60;;
79687;SDS011;69155;49.464;2.108;2023-07-13T11:21:16;5.05;;;2.00;;
79687;SDS011;69155;49.464;2.108;2023-07-13T11:23:42;6.40;;;1.40;;
79687;SDS011;69155;49.464;2.108;2023-07-13T11:26:56;6.85;;;2.05;;
79687;SDS011;69155;49.464;2.108;2023-07-13T11:28:56;12.00;;;1.58;;
79687;SDS011;69155;49.464;2.108;2023-07-13T11:31:21;3.53;;;1.40;;
79687;SDS011;69155;49.464;2.108;2023-07-13T11:33:52;3.42;;;1.50;;
79687;SDS011;69155;49.464;2.108;2023-07-13T11:36:21;3.50;;;1.52;;
79687;SDS011;69155;49.464;2.108;2023-07-13T11:39:11;3.00;;;1.30;;
79687;SDS011;69155;49.464;2.108;2023-07-13T11:41:37;2.42;;;1.08;;
79687;SDS011;69155;49.464;2.108;2023-07-13T11:44:22;4.25;;;1.60;;
79687;SDS011;69155;49.464;2.108;2023-07-13T11:46:52;4.15;;;1.38;;
79687;SDS011;69155;49.464;2.108;2023-07-13T11:49:28;2.85;;;1.42;;
79687;SDS011;69155;49.464;2.108;2023-07-13T11:51:54;3.80;;;1.50;;
79687;SDS011;69155;49.464;2.108;2023-07-13T11:54:28;3.03;;;1.40;;
79687;SDS011;69155;49.464;2.108;2023-07-13T11:57:06;3.45;;;1.40;;
79687;SDS011;69155;49.464;2.108;2023-07-13T11:59:38;3.13;;;1.75;;
79687;SDS011;69155;49.464;2.108;2023-07-13T12:02:08;2.30;;;1.40;;
79687;SDS011;69155;49.464;2.108;2023-07-13T12:04:38;2.90;;;1.40;;
79687;SDS011;69155;49.464;2.108;2023-07-13T12:07:05;4.80;;;1.70;;
79687;SDS011;69155;49.464;2.108;2023-07-13T12:09:30;1.40;;;1.23;;
79687;SDS011;69155;49.464;2.108;2023-07-13T12:11:58;2.55;;;1.30;;
79687;SDS011;69155;49.464;2.108;2023-07-13T12:14:25;4.63;;;1.60;;
79687;SDS011;69155;49.464;2.108;2023-07-13T12:16:51;6.30;;;1.33;;
79687;SDS011;69155;49.464;2.108;2023-07-13T12:19:20;3.65;;;1.65;;
79687;SDS011;69155;49.464;2.108;2023-07-13T12:21:45;2.15;;;1.20;;
79687;SDS011;69155;49.464;2.108;2023-07-13T12:24:20;1.25;;;1.15;;
79687;SDS011;69155;49.464;2.108;2023-07-13T12:26:51;2.08;;;1.40;;
79687;SDS011;69155;49.464;2.108;2023-07-13T12:29:16;3.25;;;1.35;;
79687;SDS011;69155;49.464;2.108;2023-07-13T12:31:46;2.10;;;1.33;;
79687;SDS011;69155;49.464;2.108;2023-07-13T12:34:13;1.90;;;1.30;;
79687;SDS011;69155;49.464;2.108;2023-07-13T12:36:48;2.47;;;1.50;;
79687;SDS011;69155;49.464;2.108;2023-07-13T12:41:47;4.70;;;1.50;;
79687;SDS011;69155;49.464;2.108;2023-07-13T12:44:14;3.35;;;1.30;;
79687;SDS011;69155;49.464;2.108;2023-07-13T12:46:50;3.50;;;1.30;;
79687;SDS011;69155;49.464;2.108;2023-07-13T12:49:16;3.95;;;1.40;;
79687;SDS011;69155;49.464;2.108;2023-07-13T12:51:42;1.58;;;1.30;;
79687;SDS011;69155;49.464;2.108;2023-07-13T12:54:17;13.83;;;1.70;;
79687;SDS011;69155;49.464;2.108;2023-07-13T12:56:43;10.60;;;1.70;;
79687;SDS011;69155;49.464;2.108;2023-07-13T12:59:11;3.78;;;1.27;;
79687;SDS011;69155;49.464;2.108;2023-07-13T13:01:40;7.75;;;1.50;;
79687;SDS011;69155;49.464;2.108;2023-07-13T13:04:08;2.28;;;1.35;;
79687;SDS011;69155;49.464;2.108;2023-07-13T13:06:36;2.38;;;1.38;;
79687;SDS011;69155;49.464;2.108;2023-07-13T13:09:02;7.53;;;1.70;;
79687;SDS011;69155;49.464;2.108;2023-07-13T13:11:29;1.95;;;1.23;;
79687;SDS011;69155;49.464;2.108;2023-07-13T13:13:55;2.28;;;1.20;;
79687;SDS011;69155;49.464;2.108;2023-07-13T13:18:46;5.35;;;1.70;;
79687;SDS011;69155;49.464;2.108;2023-07-13T13:21:11;9.63;;;1.70;;
79687;SDS011;69155;49.464;2.108;2023-07-13T13:23:36;5.97;;;1.40;;
79687;SDS011;69155;49.464;2.108;2023-07-13T13:26:02;2.42;;;1.13;;
79687;SDS011;69155;49.464;2.108;2023-07-13T13:28:28;3.08;;;1.10;;
79687;SDS011;69155;49.464;2.108;2023-07-13T13:30:54;4.68;;;1.30;;
79687;SDS011;69155;49.464;2.108;2023-07-13T13:33:20;3.17;;;1.30;;
79687;SDS011;69155;49.464;2.108;2023-07-13T13:35:46;3.50;;;1.08;;
79687;SDS011;69155;49.464;2.108;2023-07-13T13:38:12;5.40;;;1.27;;
79687;SDS011;69155;49.464;2.108;2023-07-13T13:40:39;3.95;;;1.42;;
79687;SDS011;69155;49.464;2.108;2023-07-13T13:43:09;4.82;;;1.65;;
79687;SDS011;69155;49.464;2.108;2023-07-13T13:45:38;2.95;;;1.35;;
79687;SDS011;69155;49.464;2.108;2023-07-13T13:48:04;3.67;;;1.10;;
79687;SDS011;69155;49.464;2.108;2023-07-13T13:50:30;2.63;;;1.40;;
79687;SDS011;69155;49.464;2.108;2023-07-13T13:52:55;5.27;;;1.40;;
79687;SDS011;69155;49.464;2.108;2023-07-13T13:55:20;1.53;;;1.30;;
79687;SDS011;69155;49.464;2.108;2023-07-13T13:57:48;2.53;;;1.50;;
79687;SDS011;69155;49.464;2.108;2023-07-13T14:00:13;1.85;;;1.20;;
79687;SDS011;69155;49.464;2.108;2023-07-13T14:02:45;2.00;;;1.30;;
79687;SDS011;69155;49.464;2.108;2023-07-13T14:05:17;3.28;;;1.50;;
79687;SDS011;69155;49.464;2.108;2023-07-13T14:07:44;3.45;;;1.38;;
79687;SDS011;69155;49.464;2.108;2023-07-13T14:10:14;3.93;;;1.30;;
79687;SDS011;69155;49.464;2.108;2023-07-13T14:12:40;1.83;;;1.27;;
79687;SDS011;69155;49.464;2.108;2023-07-13T14:15:05;1.53;;;1.17;;
79687;SDS011;69155;49.464;2.108;2023-07-13T14:17:31;3.30;;;1.50;;
79687;SDS011;69155;49.464;2.108;2023-07-13T14:19:56;4.60;;;2.03;;
79687;SDS011;69155;49.464;2.108;2023-07-13T14:22:25;4.97;;;1.55;;
79687;SDS011;69155;49.464;2.108;2023-07-13T14:24:53;4.43;;;1.70;;
79687;SDS011;69155;49.464;2.108;2023-07-13T14:27:19;4.53;;;1.42;;
79687;SDS011;69155;49.464;2.108;2023-07-13T14:29:44;2.27;;;1.40;;
79687;SDS011;69155;49.464;2.108;2023-07-13T14:32:10;5.93;;;1.50;;
79687;SDS011;69155;49.464;2.108;2023-07-13T14:34:36;3.83;;;1.55;;
79687;SDS011;69155;49.464;2.108;2023-07-13T14:37:01;6.45;;;1.92;;
79687;SDS011;69155;49.464;2.108;2023-07-13T14:39:26;2.97;;;1.10;;
79687;SDS011;69155;49.464;2.108;2023-07-13T14:41:53;2.30;;;1.70;;
79687;SDS011;69155;49.464;2.108;2023-07-13T14:44:24;5.55;;;1.80;;
79687;SDS011;69155;49.464;2.108;2023-07-13T14:46:52;2.88;;;1.67;;
79687;SDS011;69155;49.464;2.108;2023-07-13T14:52:19;2.70;;;1.63;;
79687;SDS011;69155;49.464;2.108;2023-07-13T14:54:45;9.57;;;2.17;;
79687;SDS011;69155;49.464;2.108;2023-07-13T14:57:15;5.63;;;1.40;;
79687;SDS011;69155;49.464;2.108;2023-07-13T14:59:41;2.22;;;1.48;;
79687;SDS011;69155;49.464;2.108;2023-07-13T15:02:28;4.07;;;1.50;;
79687;SDS011;69155;49.464;2.108;2023-07-13T15:04:54;3.72;;;1.63;;
79687;SDS011;69155;49.464;2.108;2023-07-13T15:07:20;4.77;;;1.40;;
79687;SDS011;69155;49.464;2.108;2023-07-13T15:09:46;5.07;;;1.27;;
79687;SDS011;69155;49.464;2.108;2023-07-13T15:12:12;2.70;;;1.40;;
79687;SDS011;69155;49.464;2.108;2023-07-13T15:14:40;2.60;;;1.50;;
79687;SDS011;69155;49.464;2.108;2023-07-13T15:17:08;2.05;;;1.20;;